createdAt,value
2018-01-25T00:00:16.577Z,0
2018-01-25T00:01:38.495Z,0
2018-01-25T00:03:00.088Z,0
2018-01-25T00:04:22.239Z,0
2018-01-25T00:05:44.357Z,0
2018-01-25T00:07:05.431Z,0
2018-01-25T00:08:27.021Z,0
2018-01-25T00:09:49.135Z,0
2018-01-25T00:11:11.100Z,0
2018-01-25T00:12:32.713Z,0
2018-01-25T00:13:54.595Z,0
2018-01-25T00:15:17.033Z,0
2018-01-25T00:16:38.998Z,0
2018-01-25T00:18:00.099Z,0
2018-01-25T00:19:22.289Z,0
2018-01-25T00:20:43.874Z,0
2018-01-25T00:22:05.985Z,0
2018-01-25T00:23:27.609Z,0
2018-01-25T00:24:49.409Z,0
2018-01-25T00:26:11.059Z,0
2018-01-25T00:27:33.198Z,0
2018-01-25T00:28:54.523Z,0
2018-01-25T00:30:16.403Z,0
2018-01-25T00:31:37.992Z,0
2018-01-25T00:32:59.419Z,0
2018-01-25T00:34:21.421Z,0
2018-01-25T00:35:43.101Z,0
2018-01-25T00:37:04.438Z,0
2018-01-25T00:38:26.035Z,0
2018-01-25T00:39:48.163Z,0
2018-01-25T00:41:09.803Z,0
2018-01-25T00:42:31.666Z,0
2018-01-25T00:43:53.288Z,0
2018-01-25T00:45:15.217Z,0
2018-01-25T00:46:37.102Z,0
2018-01-25T00:47:58.958Z,0
2018-01-25T00:49:20.580Z,0
2018-01-25T00:50:42.768Z,0
2018-01-25T00:52:03.976Z,0
2018-01-25T00:53:25.928Z,0
2018-01-25T00:54:48.030Z,0
2018-01-25T00:56:10.292Z,0
2018-01-25T00:57:32.142Z,0
2018-01-25T00:58:53.207Z,0
2018-01-25T01:00:15.322Z,0
2018-01-25T01:01:37.002Z,0
2018-01-25T01:02:58.847Z,0
2018-01-25T01:04:21.090Z,0
2018-01-25T01:05:43.223Z,0
2018-01-25T01:07:05.103Z,0
2018-01-25T01:08:26.549Z,0
2018-01-25T01:09:48.460Z,0
2018-01-25T01:11:10.062Z,0
2018-01-25T01:12:31.771Z,0
2018-01-25T01:13:53.699Z,0
2018-01-25T01:15:16.090Z,0
2018-01-25T01:16:38.222Z,0
2018-01-25T01:17:59.429Z,0
2018-01-25T01:19:21.305Z,0
2018-01-25T01:20:42.901Z,0
2018-01-25T01:22:04.487Z,0
2018-01-25T01:23:26.615Z,0
2018-01-25T01:24:48.468Z,0
2018-01-25T01:26:10.841Z,0
2018-01-25T01:27:32.474Z,0
2018-01-25T01:28:53.884Z,0
2018-01-25T01:30:15.945Z,0
2018-01-25T01:31:38.341Z,0
2018-01-25T01:32:59.938Z,0
2018-01-25T01:34:21.812Z,0
2018-01-25T01:35:43.426Z,0
2018-01-25T01:37:05.573Z,0
2018-01-25T01:38:27.205Z,0
2018-01-25T01:39:49.077Z,0
2018-01-25T01:41:10.934Z,0
2018-01-25T01:42:32.794Z,0
2018-01-25T01:43:54.383Z,0
2018-01-25T01:45:16.172Z,0
2018-01-25T01:46:38.361Z,0
2018-01-25T01:48:00.555Z,0
2018-01-25T01:49:22.172Z,0
2018-01-25T01:50:44.070Z,0
2018-01-25T01:52:05.709Z,0
2018-01-25T01:53:28.028Z,0
2018-01-25T01:54:49.897Z,0
2018-01-25T01:56:11.754Z,0
2018-01-25T01:57:33.871Z,0
2018-01-25T01:58:55.797Z,0
2018-01-25T02:00:17.783Z,0
2018-01-25T02:01:40.150Z,0
2018-01-25T02:03:01.818Z,0
2018-01-25T02:04:23.433Z,0
2018-01-25T02:05:45.557Z,0
2018-01-25T02:07:07.667Z,0
2018-01-25T02:08:29.800Z,0
2018-01-25T02:09:51.719Z,0
2018-01-25T02:11:13.891Z,0
2018-01-25T02:12:35.553Z,0
2018-01-25T02:13:57.501Z,0
2018-01-25T02:15:19.293Z,0
2018-01-25T02:16:41.528Z,0
2018-01-25T02:18:03.059Z,0
2018-01-25T02:19:24.931Z,0
2018-01-25T02:20:46.309Z,0
2018-01-25T02:22:08.168Z,0
2018-01-25T02:23:29.513Z,0
2018-01-25T02:24:51.630Z,0
2018-01-25T02:26:13.813Z,0
2018-01-25T02:27:36.034Z,0
2018-01-25T02:28:57.892Z,0
2018-01-25T02:30:19.302Z,0
2018-01-25T02:31:40.891Z,0
2018-01-25T02:33:02.744Z,0
2018-01-25T02:34:24.846Z,0
2018-01-25T02:35:46.506Z,0
2018-01-25T02:37:08.402Z,0
2018-01-25T02:38:30.412Z,0
2018-01-25T02:39:52.262Z,0
2018-01-25T02:41:13.849Z,0
2018-01-25T02:42:35.181Z,0
2018-01-25T02:43:56.780Z,0
2018-01-25T02:45:18.797Z,0
2018-01-25T02:46:40.415Z,0
2018-01-25T02:48:02.603Z,0
2018-01-25T02:49:23.812Z,0
2018-01-25T02:50:45.680Z,0
2018-01-25T02:52:07.539Z,0
2018-01-25T02:53:29.566Z,0
2018-01-25T02:54:51.534Z,0
2018-01-25T02:56:12.589Z,0
2018-01-25T02:57:34.488Z,0
2018-01-25T02:58:56.098Z,0
2018-01-25T03:00:17.482Z,0
2018-01-25T03:01:39.315Z,0
2018-01-25T03:03:00.963Z,0
2018-01-25T03:04:23.067Z,0
2018-01-25T03:05:44.915Z,0
2018-01-25T03:07:06.830Z,0
2018-01-25T03:08:28.743Z,0
2018-01-25T03:09:50.685Z,0
2018-01-25T03:11:12.548Z,0
2018-01-25T03:12:34.246Z,0
2018-01-25T03:13:56.230Z,0
2018-01-25T03:15:18.156Z,0
2018-01-25T03:16:39.586Z,0
2018-01-25T03:18:01.711Z,0
2018-01-25T03:19:23.314Z,0
2018-01-25T03:20:45.702Z,0
2018-01-25T03:22:07.297Z,0
2018-01-25T03:23:28.888Z,0
2018-01-25T03:24:50.264Z,0
2018-01-25T03:26:11.399Z,0
2018-01-25T03:27:32.989Z,0
2018-01-25T03:28:55.114Z,0
2018-01-25T03:30:17.290Z,0
2018-01-25T03:31:38.888Z,0
2018-01-25T03:33:00.576Z,0
2018-01-25T03:34:22.227Z,0
2018-01-25T03:35:44.071Z,0
2018-01-25T03:37:05.934Z,0
2018-01-25T03:38:28.044Z,0
2018-01-25T03:39:49.894Z,0
2018-01-25T03:41:12.039Z,0
2018-01-25T03:42:33.624Z,0
2018-01-25T03:43:55.900Z,0
2018-01-25T03:45:17.824Z,0
2018-01-25T03:46:39.410Z,0
2018-01-25T03:48:01.040Z,0
2018-01-25T03:49:22.136Z,0
2018-01-25T03:50:43.718Z,0
2018-01-25T03:52:05.834Z,0
2018-01-25T03:53:27.713Z,0
2018-01-25T03:54:49.606Z,0
2018-01-25T03:56:11.468Z,0
2018-01-25T03:57:33.077Z,0
2018-01-25T03:58:54.955Z,0
2018-01-25T04:00:16.587Z,0
2018-01-25T04:01:38.494Z,0
2018-01-25T04:03:00.092Z,0
2018-01-25T04:04:22.196Z,0
2018-01-25T04:05:43.279Z,0
2018-01-25T04:07:04.904Z,0
2018-01-25T04:08:27.051Z,0
2018-01-25T04:09:48.820Z,0
2018-01-25T04:11:10.673Z,0
2018-01-25T04:12:32.594Z,0
2018-01-25T04:13:53.957Z,0
2018-01-25T04:15:15.821Z,0
2018-01-25T04:16:37.784Z,0
2018-01-25T04:17:59.372Z,0
2018-01-25T04:19:21.473Z,0
2018-01-25T04:20:43.422Z,0
2018-01-25T04:22:05.157Z,0
2018-01-25T04:23:27.162Z,0
2018-01-25T04:24:49.261Z,0
2018-01-25T04:26:10.756Z,0
2018-01-25T04:27:32.733Z,0
2018-01-25T04:28:54.371Z,0
2018-01-25T04:30:15.964Z,0
2018-01-25T04:31:37.566Z,0
2018-01-25T04:32:59.414Z,0
2018-01-25T04:34:20.815Z,0
2018-01-25T04:35:42.913Z,0
2018-01-25T04:37:04.870Z,0
2018-01-25T04:38:26.712Z,0
2018-01-25T04:39:48.852Z,0
2018-01-25T04:41:10.843Z,0
2018-01-25T04:42:32.194Z,0
2018-01-25T04:43:54.150Z,0
2018-01-25T04:45:15.885Z,0
2018-01-25T04:46:37.483Z,0
2018-01-25T04:47:59.204Z,0
2018-01-25T04:49:20.359Z,0
2018-01-25T04:50:41.938Z,0
2018-01-25T04:52:03.557Z,0
2018-01-25T04:53:25.160Z,0
2018-01-25T04:54:46.854Z,0
2018-01-25T04:56:08.474Z,0
2018-01-25T04:57:30.077Z,0
2018-01-25T04:58:51.934Z,0
2018-01-25T05:00:13.555Z,0
2018-01-25T05:01:35.512Z,0
2018-01-25T05:02:57.464Z,0
2018-01-25T05:04:19.723Z,0
2018-01-25T05:05:41.457Z,0
2018-01-25T05:07:03.372Z,0
2018-01-25T05:08:25.373Z,0
2018-01-25T05:09:47.354Z,0
2018-01-25T05:11:09.355Z,0
2018-01-25T05:12:31.152Z,0
2018-01-25T05:13:53.031Z,0
2018-01-25T05:15:15.195Z,0
2018-01-25T05:16:37.374Z,0
2018-01-25T05:17:58.732Z,0
2018-01-25T05:19:20.359Z,0
2018-01-25T05:20:41.714Z,0
2018-01-25T05:22:03.568Z,0
2018-01-25T05:23:25.442Z,0
2018-01-25T05:24:47.383Z,0
2018-01-25T05:26:09.307Z,0
2018-01-25T05:27:31.322Z,0
2018-01-25T05:28:53.179Z,0
2018-01-25T05:30:15.051Z,0
2018-01-25T05:31:37.198Z,0
2018-01-25T05:32:58.851Z,0
2018-01-25T05:34:20.718Z,0
2018-01-25T05:35:42.333Z,0
2018-01-25T05:37:04.213Z,0
2018-01-25T05:38:26.077Z,0
2018-01-25T05:39:47.997Z,0
2018-01-25T05:41:09.863Z,0
2018-01-25T05:42:31.983Z,0
2018-01-25T05:43:53.386Z,0
2018-01-25T05:45:15.263Z,0
2018-01-25T05:46:37.120Z,0
2018-01-25T05:47:58.733Z,0
2018-01-25T05:49:20.869Z,0
2018-01-25T05:50:42.932Z,0
2018-01-25T05:52:04.807Z,0
2018-01-25T05:53:26.757Z,0
2018-01-25T05:54:48.636Z,0
2018-01-25T05:56:10.835Z,0
2018-01-25T05:57:32.409Z,0
2018-01-25T05:58:54.113Z,0
2018-01-25T06:00:16.003Z,0
2018-01-25T06:01:37.598Z,0
2018-01-25T06:02:59.259Z,0
2018-01-25T06:04:21.358Z,0
2018-01-25T06:05:42.704Z,0
2018-01-25T06:07:04.283Z,0
2018-01-25T06:08:26.380Z,0
2018-01-25T06:09:48.053Z,0
2018-01-25T06:11:09.985Z,0
2018-01-25T06:12:31.897Z,0
2018-01-25T06:13:53.352Z,0
2018-01-25T06:15:15.133Z,0
2018-01-25T06:16:36.748Z,0
2018-01-25T06:17:58.354Z,0
2018-01-25T06:19:20.535Z,0
2018-01-25T06:20:42.403Z,0
2018-01-25T06:22:03.992Z,0
2018-01-25T06:23:25.844Z,0
2018-01-25T06:24:47.728Z,0
2018-01-25T06:26:09.583Z,0
2018-01-25T06:27:31.423Z,0
2018-01-25T06:28:53.610Z,0
2018-01-25T06:30:15.263Z,0
2018-01-25T06:31:37.174Z,0
2018-01-25T06:32:59.053Z,0
2018-01-25T06:34:20.371Z,0
2018-01-25T06:35:42.162Z,0
2018-01-25T06:37:04.035Z,0
2018-01-25T06:38:26.162Z,0
2018-01-25T06:39:48.160Z,0
2018-01-25T06:41:09.489Z,0
2018-01-25T06:42:31.337Z,0
2018-01-25T06:43:53.296Z,0
2018-01-25T06:45:14.670Z,0
2018-01-25T06:46:36.806Z,0
2018-01-25T06:47:58.504Z,0
2018-01-25T06:49:19.853Z,0
2018-01-25T06:50:41.700Z,0
2018-01-25T06:52:03.758Z,0
2018-01-25T06:53:26.102Z,0
2018-01-25T06:54:47.966Z,0
2018-01-25T06:56:09.828Z,0
2018-01-25T06:57:31.945Z,0
2018-01-25T06:58:53.816Z,0
2018-01-25T07:00:15.430Z,0
2018-01-25T07:01:36.775Z,0
2018-01-25T07:02:58.621Z,0
2018-01-25T07:04:20.612Z,0
2018-01-25T07:05:42.223Z,0
2018-01-25T07:07:03.839Z,0
2018-01-25T07:08:25.947Z,0
2018-01-25T07:09:47.286Z,0
2018-01-25T07:11:08.888Z,0
2018-01-25T07:12:31.091Z,0
2018-01-25T07:13:53.222Z,0
2018-01-25T07:15:14.564Z,0
2018-01-25T07:16:36.685Z,0
2018-01-25T07:17:58.292Z,0
2018-01-25T07:19:20.151Z,0
2018-01-25T07:20:42.322Z,0
2018-01-25T07:22:04.051Z,0
2018-01-25T07:23:25.961Z,5
2018-01-25T07:24:47.908Z,5
2018-01-25T07:26:09.626Z,5
2018-01-25T07:27:31.213Z,5
2018-01-25T07:28:53.407Z,10
2018-01-25T07:30:14.995Z,10
2018-01-25T07:31:37.072Z,10
2018-01-25T07:32:58.951Z,10
2018-01-25T07:34:20.353Z,15
2018-01-25T07:35:42.472Z,15
2018-01-25T07:37:04.213Z,15
2018-01-25T07:38:26.068Z,20
2018-01-25T07:39:48.040Z,20
2018-01-25T07:41:10.024Z,20
2018-01-25T07:42:31.632Z,20
2018-01-25T07:43:53.863Z,20
2018-01-25T07:45:15.851Z,20
2018-01-25T07:46:38.037Z,20
2018-01-25T07:47:59.643Z,20
2018-01-25T07:49:21.089Z,25
2018-01-25T07:50:42.453Z,25
2018-01-25T07:52:04.204Z,25
2018-01-25T07:53:26.163Z,25
2018-01-25T07:54:48.062Z,25
2018-01-25T07:56:09.909Z,25
2018-01-25T07:57:31.941Z,25
2018-01-25T07:58:54.053Z,30
2018-01-25T08:00:15.661Z,30
2018-01-25T08:01:37.803Z,25
2018-01-25T08:02:59.942Z,20
2018-01-25T08:04:21.283Z,20
2018-01-25T08:05:43.151Z,25
2018-01-25T08:07:05.011Z,15
2018-01-25T08:08:26.446Z,20
2018-01-25T08:09:48.780Z,20
2018-01-25T08:11:10.952Z,25
2018-01-25T08:12:33.074Z,25
2018-01-25T08:13:55.233Z,25
2018-01-25T08:15:17.103Z,30
2018-01-25T08:16:38.809Z,30
2018-01-25T08:18:00.516Z,35
2018-01-25T08:19:22.381Z,40
2018-01-25T08:20:44.977Z,40
2018-01-25T08:22:06.633Z,40
2018-01-25T08:23:27.977Z,40
2018-01-25T08:24:49.821Z,45
2018-01-25T08:26:11.744Z,50
2018-01-25T08:27:33.730Z,50
2018-01-25T08:28:55.073Z,55
2018-01-25T08:30:16.673Z,50
2018-01-25T08:31:38.530Z,50
2018-01-25T08:33:00.395Z,50
2018-01-25T08:34:22.323Z,55
2018-01-25T08:35:44.281Z,55
2018-01-25T08:37:05.785Z,55
2018-01-25T08:38:27.404Z,60
2018-01-25T08:39:49.068Z,60
2018-01-25T08:41:10.427Z,65
2018-01-25T08:42:32.271Z,65
2018-01-25T08:43:54.442Z,60
2018-01-25T08:45:16.308Z,60
2018-01-25T08:46:38.176Z,70
2018-01-25T08:48:00.405Z,75
2018-01-25T08:49:22.534Z,70
2018-01-25T08:50:43.880Z,75
2018-01-25T08:52:05.468Z,70
2018-01-25T08:53:27.710Z,60
2018-01-25T08:54:49.068Z,70
2018-01-25T08:56:11.170Z,75
2018-01-25T08:57:33.033Z,85
2018-01-25T08:58:54.630Z,85
2018-01-25T09:00:16.563Z,100
2018-01-25T09:01:38.541Z,100
2018-01-25T09:02:59.863Z,105
2018-01-25T09:04:21.737Z,95
2018-01-25T09:05:43.333Z,75
2018-01-25T09:07:05.250Z,65
2018-01-25T09:08:27.534Z,70
2018-01-25T09:09:49.138Z,60
2018-01-25T09:11:10.767Z,55
2018-01-25T09:12:32.473Z,60
2018-01-25T09:13:54.633Z,70
2018-01-25T09:15:15.973Z,80
2018-01-25T09:16:37.592Z,90
2018-01-25T09:17:59.752Z,90
2018-01-25T09:19:21.401Z,90
2018-01-25T09:20:43.003Z,105
2018-01-25T09:22:04.625Z,110
2018-01-25T09:23:26.844Z,115
2018-01-25T09:24:48.293Z,125
2018-01-25T09:26:09.630Z,130
2018-01-25T09:27:31.614Z,135
2018-01-25T09:28:53.234Z,140
2018-01-25T09:30:15.455Z,150
2018-01-25T09:31:37.352Z,155
2018-01-25T09:32:59.229Z,150
2018-01-25T09:34:21.367Z,160
2018-01-25T09:35:43.006Z,165
2018-01-25T09:37:05.013Z,180
2018-01-25T09:38:26.872Z,195
2018-01-25T09:39:48.723Z,180
2018-01-25T09:41:10.425Z,170
2018-01-25T09:42:32.353Z,175
2018-01-25T09:43:54.230Z,155
2018-01-25T09:45:15.902Z,140
2018-01-25T09:46:37.238Z,130
2018-01-25T09:47:58.848Z,120
2018-01-25T09:49:20.193Z,115
2018-01-25T09:50:42.047Z,120
2018-01-25T09:52:03.983Z,120
2018-01-25T09:53:25.935Z,130
2018-01-25T09:54:47.533Z,125
2018-01-25T09:56:09.409Z,100
2018-01-25T09:57:31.536Z,95
2018-01-25T09:58:53.180Z,95
2018-01-25T10:00:15.041Z,105
2018-01-25T10:01:36.896Z,110
2018-01-25T10:02:58.246Z,95
2018-01-25T10:04:20.480Z,80
2018-01-25T10:05:42.621Z,70
2018-01-25T10:07:04.078Z,55
2018-01-25T10:08:25.684Z,55
2018-01-25T10:09:47.922Z,50
2018-01-25T10:11:09.763Z,50
2018-01-25T10:12:31.666Z,65
2018-01-25T10:13:53.822Z,65
2018-01-25T10:15:15.672Z,60
2018-01-25T10:16:37.537Z,65
2018-01-25T10:17:59.177Z,60
2018-01-25T10:19:21.040Z,70
2018-01-25T10:20:42.142Z,65
2018-01-25T10:22:04.010Z,60
2018-01-25T10:23:26.186Z,90
2018-01-25T10:24:48.055Z,80
2018-01-25T10:26:09.965Z,105
2018-01-25T10:27:31.580Z,120
2018-01-25T10:28:53.443Z,140
2018-01-25T10:30:14.824Z,145
2018-01-25T10:31:36.941Z,150
2018-01-25T10:32:58.561Z,155
2018-01-25T10:34:20.165Z,150
2018-01-25T10:35:41.781Z,150
2018-01-25T10:37:04.019Z,150
2018-01-25T10:38:25.755Z,150
2018-01-25T10:39:47.879Z,150
2018-01-25T10:41:09.685Z,150
2018-01-25T10:42:31.895Z,155
2018-01-25T10:43:53.765Z,155
2018-01-25T10:45:15.909Z,145
2018-01-25T10:46:37.343Z,145
2018-01-25T10:47:59.532Z,150
2018-01-25T10:49:21.407Z,145
2018-01-25T10:50:43.575Z,145
2018-01-25T10:52:05.443Z,120
2018-01-25T10:53:27.069Z,125
2018-01-25T10:54:48.443Z,105
2018-01-25T10:56:10.775Z,95
2018-01-25T10:57:32.648Z,105
2018-01-25T10:58:54.247Z,110
2018-01-25T11:00:15.682Z,115
2018-01-25T11:01:37.844Z,115
2018-01-25T11:02:59.868Z,120
2018-01-25T11:04:21.759Z,140
2018-01-25T11:05:43.422Z,145
2018-01-25T11:07:05.274Z,130
2018-01-25T11:08:27.230Z,155
2018-01-25T11:09:49.110Z,180
2018-01-25T11:11:11.288Z,185
2018-01-25T11:12:33.262Z,185
2018-01-25T11:13:54.345Z,180
2018-01-25T11:15:16.373Z,170
2018-01-25T11:16:38.491Z,165
2018-01-25T11:18:00.342Z,160
2018-01-25T11:19:22.207Z,155
2018-01-25T11:20:44.083Z,150
2018-01-25T11:22:06.220Z,150
2018-01-25T11:23:28.131Z,140
2018-01-25T11:24:49.493Z,135
2018-01-25T11:26:11.361Z,125
2018-01-25T11:27:32.502Z,115
2018-01-25T11:28:53.866Z,115
2018-01-25T11:30:14.944Z,125
2018-01-25T11:31:37.239Z,130
2018-01-25T11:32:58.830Z,120
2018-01-25T11:34:20.422Z,110
2018-01-25T11:35:42.529Z,135
2018-01-25T11:37:04.403Z,130
2018-01-25T11:38:25.986Z,125
2018-01-25T11:39:47.902Z,130
2018-01-25T11:41:09.611Z,140
2018-01-25T11:42:31.872Z,125
2018-01-25T11:43:54.090Z,115
2018-01-25T11:45:16.248Z,120
2018-01-25T11:46:38.152Z,110
2018-01-25T11:48:00.029Z,120
2018-01-25T11:49:21.862Z,110
2018-01-25T11:50:43.221Z,110
2018-01-25T11:52:05.064Z,105
2018-01-25T11:53:26.453Z,125
2018-01-25T11:54:48.409Z,130
2018-01-25T11:56:10.428Z,120
2018-01-25T11:57:32.040Z,145
2018-01-25T11:58:53.433Z,145
2018-01-25T12:00:15.033Z,130
2018-01-25T12:01:36.663Z,140
2018-01-25T12:02:58.260Z,145
2018-01-25T12:04:19.915Z,145
2018-01-25T12:05:42.205Z,155
2018-01-25T12:07:04.223Z,160
2018-01-25T12:08:26.443Z,155
2018-01-25T12:09:48.514Z,150
2018-01-25T12:11:10.383Z,155
2018-01-25T12:12:32.229Z,155
2018-01-25T12:13:54.355Z,155
2018-01-25T12:15:16.270Z,155
2018-01-25T12:16:38.135Z,155
2018-01-25T12:18:00.140Z,155
2018-01-25T12:19:21.501Z,155
2018-01-25T12:20:43.124Z,155
2018-01-25T12:22:04.777Z,155
2018-01-25T12:23:26.395Z,155
2018-01-25T12:24:48.561Z,155
2018-01-25T12:26:10.156Z,155
2018-01-25T12:27:32.088Z,160
2018-01-25T12:28:53.687Z,145
2018-01-25T12:30:15.042Z,145
2018-01-25T12:31:37.000Z,150
2018-01-25T12:32:58.923Z,155
2018-01-25T12:34:20.514Z,155
2018-01-25T12:35:42.361Z,155
2018-01-25T12:37:04.260Z,160
2018-01-25T12:38:25.603Z,160
2018-01-25T12:39:47.206Z,160
2018-01-25T12:41:09.340Z,165
2018-01-25T12:42:31.351Z,165
2018-01-25T12:43:53.550Z,165
2018-01-25T12:45:15.442Z,160
2018-01-25T12:46:37.041Z,160
2018-01-25T12:47:58.722Z,160
2018-01-25T12:49:20.667Z,160
2018-01-25T12:50:42.368Z,160
2018-01-25T12:52:04.239Z,160
2018-01-25T12:53:26.284Z,155
2018-01-25T12:54:48.434Z,155
2018-01-25T12:56:10.363Z,155
2018-01-25T12:57:31.976Z,155
2018-01-25T12:58:54.138Z,150
2018-01-25T13:00:16.413Z,150
2018-01-25T13:01:38.465Z,150
2018-01-25T13:03:00.731Z,150
2018-01-25T13:04:22.339Z,155
2018-01-25T13:05:44.204Z,150
2018-01-25T13:07:05.931Z,150
2018-01-25T13:08:27.900Z,150
2018-01-25T13:09:50.124Z,150
2018-01-25T13:11:11.751Z,150
2018-01-25T13:12:33.703Z,145
2018-01-25T13:13:55.352Z,140
2018-01-25T13:15:17.482Z,135
2018-01-25T13:16:39.610Z,140
2018-01-25T13:18:01.736Z,140
2018-01-25T13:19:23.628Z,140
2018-01-25T13:20:45.652Z,135
2018-01-25T13:22:07.343Z,135
2018-01-25T13:23:29.089Z,135
2018-01-25T13:24:50.758Z,130
2018-01-25T13:26:12.377Z,125
2018-01-25T13:27:34.250Z,120
2018-01-25T13:28:56.484Z,120
2018-01-25T13:30:18.673Z,110
2018-01-25T13:31:40.299Z,115
2018-01-25T13:33:02.282Z,115
2018-01-25T13:34:23.771Z,120
2018-01-25T13:35:45.657Z,120
2018-01-25T13:37:07.302Z,115
2018-01-25T13:38:29.219Z,115
2018-01-25T13:39:51.455Z,115
2018-01-25T13:41:13.335Z,110
2018-01-25T13:42:35.189Z,110
2018-01-25T13:43:56.594Z,110
2018-01-25T13:45:18.502Z,110
2018-01-25T13:46:40.783Z,110
2018-01-25T13:48:02.922Z,110
2018-01-25T13:49:25.140Z,110
2018-01-25T13:50:47.405Z,115
2018-01-25T13:52:09.282Z,115
2018-01-25T13:53:31.003Z,110
2018-01-25T13:54:52.641Z,110
2018-01-25T13:56:14.510Z,105
2018-01-25T13:57:36.684Z,105
2018-01-25T13:58:58.032Z,105
2018-01-25T14:00:19.779Z,105
2018-01-25T14:01:41.411Z,105
2018-01-25T14:03:03.755Z,100
2018-01-25T14:04:25.642Z,100
2018-01-25T14:05:47.533Z,95
2018-01-25T14:07:09.397Z,100
2018-01-25T14:08:31.029Z,95
2018-01-25T14:09:52.645Z,95
2018-01-25T14:11:14.554Z,95
2018-01-25T14:12:36.755Z,100
2018-01-25T14:13:58.937Z,100
2018-01-25T14:15:20.948Z,100
2018-01-25T14:16:42.638Z,95
2018-01-25T14:18:04.922Z,95
2018-01-25T14:19:27.075Z,100
2018-01-25T14:20:48.684Z,95
2018-01-25T14:22:10.832Z,95
2018-01-25T14:23:32.751Z,90
2018-01-25T14:24:54.769Z,90
2018-01-25T14:26:16.900Z,85
2018-01-25T14:27:38.861Z,85
2018-01-25T14:29:01.053Z,80
2018-01-25T14:30:22.667Z,80
2018-01-25T14:31:44.636Z,80
2018-01-25T14:33:06.885Z,80
2018-01-25T14:34:28.825Z,75
2018-01-25T14:35:50.721Z,75
2018-01-25T14:37:12.612Z,70
2018-01-25T14:38:34.742Z,70
2018-01-25T14:39:56.914Z,65
2018-01-25T14:41:18.814Z,65
2018-01-25T14:42:40.549Z,65
2018-01-25T14:44:02.432Z,65
2018-01-25T14:45:24.595Z,65
2018-01-25T14:46:46.215Z,65
2018-01-25T14:48:08.249Z,60
2018-01-25T14:49:29.962Z,60
2018-01-25T14:50:52.118Z,60
2018-01-25T14:52:13.948Z,55
2018-01-25T14:53:36.155Z,55
2018-01-25T14:54:58.117Z,55
2018-01-25T14:56:20.274Z,50
2018-01-25T14:57:42.174Z,50
2018-01-25T14:59:04.376Z,50
2018-01-25T15:00:26.313Z,50
2018-01-25T15:01:48.615Z,50
2018-01-25T15:03:10.454Z,50
2018-01-25T15:04:32.437Z,50
2018-01-25T15:05:54.323Z,45
2018-01-25T15:07:15.939Z,45
2018-01-25T15:08:37.817Z,45
2018-01-25T15:10:00.046Z,40
2018-01-25T15:11:22.017Z,40
2018-01-25T15:12:44.010Z,35
2018-01-25T15:14:06.255Z,35
2018-01-25T15:15:28.432Z,35
2018-01-25T15:16:50.564Z,30
2018-01-25T15:18:12.477Z,30
2018-01-25T15:19:34.631Z,30
2018-01-25T15:20:56.734Z,25
2018-01-25T15:22:18.884Z,25
2018-01-25T15:23:41.034Z,25
2018-01-25T15:25:03.263Z,25
2018-01-25T15:26:25.195Z,25
2018-01-25T15:27:47.312Z,20
2018-01-25T15:29:09.873Z,20
2018-01-25T15:30:31.851Z,15
2018-01-25T15:31:54.000Z,15
2018-01-25T15:33:16.145Z,15
2018-01-25T15:34:38.284Z,15
2018-01-25T15:36:00.206Z,10
2018-01-25T15:37:22.096Z,10
2018-01-25T15:38:44.322Z,10
2018-01-25T15:40:06.482Z,10
2018-01-25T15:41:28.425Z,10
2018-01-25T15:42:50.735Z,10
2018-01-25T15:44:12.955Z,5
2018-01-25T15:45:34.866Z,5
2018-01-25T15:46:57.042Z,5
2018-01-25T15:48:19.048Z,5
2018-01-25T15:49:40.962Z,5
2018-01-25T15:51:03.129Z,5
2018-01-25T15:52:24.771Z,5
2018-01-25T15:53:46.723Z,5
2018-01-25T15:55:08.683Z,5
2018-01-25T15:56:30.756Z,0
2018-01-25T15:57:53.082Z,0
2018-01-25T15:59:14.971Z,0
2018-01-25T16:00:36.973Z,0
2018-01-25T16:01:59.248Z,0
2018-01-25T16:03:21.252Z,0
2018-01-25T16:04:43.422Z,0
2018-01-25T16:06:05.702Z,0
2018-01-25T16:07:27.602Z,0
2018-01-25T16:08:49.503Z,0
2018-01-25T16:10:12.005Z,0
2018-01-25T16:11:33.425Z,0
2018-01-25T16:12:55.576Z,0
2018-01-25T16:14:17.806Z,0
2018-01-25T16:15:40.156Z,0
2018-01-25T16:17:02.275Z,0
2018-01-25T16:18:24.641Z,0
2018-01-25T16:19:46.933Z,0
2018-01-25T16:21:08.880Z,0
2018-01-25T16:22:30.836Z,0
2018-01-25T16:23:53.034Z,0
2018-01-25T16:25:15.279Z,0
2018-01-25T16:26:37.004Z,0
2018-01-25T16:27:59.166Z,0
2018-01-25T16:29:21.352Z,0
2018-01-25T16:30:43.045Z,0
2018-01-25T16:32:05.216Z,0
2018-01-25T16:33:27.352Z,0
2018-01-25T16:34:49.653Z,0
2018-01-25T16:36:11.697Z,0
2018-01-25T16:37:33.590Z,0
2018-01-25T16:38:55.313Z,0
2018-01-25T16:40:17.468Z,0
2018-01-25T16:41:39.740Z,0
2018-01-25T16:43:01.928Z,0
2018-01-25T16:44:24.089Z,0
2018-01-25T16:45:46.255Z,0
2018-01-25T16:47:08.452Z,0
2018-01-25T16:48:30.490Z,0
2018-01-25T16:49:52.643Z,0
2018-01-25T16:51:14.525Z,0
2018-01-25T16:52:36.159Z,0
2018-01-25T16:53:58.047Z,0
2018-01-25T16:55:20.300Z,0
2018-01-25T16:56:42.509Z,0
2018-01-25T16:58:04.660Z,0
2018-01-25T16:59:26.587Z,0
2018-01-25T17:00:48.729Z,0
2018-01-25T17:02:10.643Z,0
2018-01-25T17:03:32.857Z,0
2018-01-25T17:04:55.000Z,0
2018-01-25T17:06:17.178Z,0
2018-01-25T17:07:39.111Z,0
2018-01-25T17:09:01.005Z,0
2018-01-25T17:10:23.045Z,0
2018-01-25T17:11:45.252Z,0
2018-01-25T17:13:07.472Z,0
2018-01-25T17:14:29.387Z,0
2018-01-25T17:15:51.263Z,0
2018-01-25T17:17:13.189Z,0
2018-01-25T17:18:35.580Z,0
2018-01-25T17:19:57.783Z,0
2018-01-25T17:21:20.042Z,0
2018-01-25T17:22:42.233Z,0
2018-01-25T17:24:04.424Z,0
2018-01-25T17:25:26.451Z,0
2018-01-25T17:26:48.695Z,0
2018-01-25T17:28:10.920Z,0
2018-01-25T17:29:32.916Z,0
2018-01-25T17:30:54.574Z,0
2018-01-25T17:32:16.209Z,0
2018-01-25T17:33:38.431Z,0
2018-01-25T17:35:00.615Z,0
2018-01-25T17:36:22.793Z,0
2018-01-25T17:37:44.704Z,0
2018-01-25T17:39:06.334Z,0
2018-01-25T17:40:27.739Z,0
2018-01-25T17:41:49.978Z,0
2018-01-25T17:43:11.927Z,0
2018-01-25T17:44:34.125Z,0
2018-01-25T17:45:56.116Z,0
2018-01-25T17:47:18.420Z,0
2018-01-25T17:48:40.101Z,0
2018-01-25T17:50:02.090Z,0
2018-01-25T17:51:24.056Z,0
2018-01-25T17:52:46.277Z,0
2018-01-25T17:54:08.452Z,0
2018-01-25T17:55:30.366Z,0
2018-01-25T17:56:52.294Z,0
2018-01-25T17:58:14.553Z,0
2018-01-25T17:59:36.732Z,0
2018-01-25T18:00:58.932Z,0
2018-01-25T18:02:20.950Z,0
2018-01-25T18:03:43.153Z,0
2018-01-25T18:05:05.332Z,0
2018-01-25T18:06:27.306Z,0
2018-01-25T18:07:49.212Z,0
2018-01-25T18:09:10.901Z,0
2018-01-25T18:10:32.814Z,0
2018-01-25T18:11:54.775Z,0
2018-01-25T18:13:16.408Z,0
2018-01-25T18:14:38.613Z,0
2018-01-25T18:16:00.960Z,0
2018-01-25T18:17:22.725Z,0
2018-01-25T18:18:44.623Z,0
2018-01-25T18:20:06.573Z,0
2018-01-25T18:21:28.846Z,0
2018-01-25T18:22:51.092Z,0
2018-01-25T18:24:13.254Z,0
2018-01-25T18:25:35.441Z,0
2018-01-25T18:26:57.612Z,0
2018-01-25T18:28:19.239Z,0
2018-01-25T18:29:40.905Z,0
2018-01-25T18:31:03.218Z,0
2018-01-25T18:32:25.425Z,0
2018-01-25T18:33:47.613Z,0
2018-01-25T18:35:09.876Z,0
2018-01-25T18:36:32.028Z,0
2018-01-25T18:37:54.309Z,0
2018-01-25T18:39:16.622Z,0
2018-01-25T18:40:38.704Z,0
2018-01-25T18:42:00.414Z,0
2018-01-25T18:43:22.359Z,0
2018-01-25T18:44:44.576Z,0
2018-01-25T18:46:06.817Z,0
2018-01-25T18:47:28.478Z,0
2018-01-25T18:48:50.639Z,0
2018-01-25T18:50:12.851Z,0
2018-01-25T18:51:34.743Z,0
2018-01-25T18:52:56.923Z,0
2018-01-25T18:54:19.104Z,0
2018-01-25T18:55:40.806Z,0
2018-01-25T18:57:02.733Z,0
2018-01-25T18:58:24.984Z,0
2018-01-25T18:59:47.226Z,0
2018-01-25T19:01:08.912Z,0
2018-01-25T19:02:31.190Z,0
2018-01-25T19:03:53.279Z,0
2018-01-25T19:05:15.537Z,0
2018-01-25T19:06:37.477Z,0
2018-01-25T19:07:59.456Z,0
2018-01-25T19:09:21.812Z,0
2018-01-25T19:10:44.230Z,0
2018-01-25T19:12:06.433Z,0
2018-01-25T19:13:28.092Z,0
2018-01-25T19:14:50.602Z,0
2018-01-25T19:16:12.812Z,0
2018-01-25T19:17:35.103Z,0
2018-01-25T19:18:57.115Z,0
2018-01-25T19:20:19.283Z,0
2018-01-25T19:21:41.853Z,0
2018-01-25T19:23:03.918Z,0
2018-01-25T19:24:26.195Z,0
2018-01-25T19:25:48.371Z,0
2018-01-25T19:27:10.593Z,0
2018-01-25T19:28:32.842Z,0
2018-01-25T19:29:54.502Z,0
2018-01-25T19:31:16.745Z,0
2018-01-25T19:32:38.931Z,0
2018-01-25T19:34:01.091Z,0
2018-01-25T19:35:23.192Z,0
2018-01-25T19:36:45.437Z,0
2018-01-25T19:38:07.624Z,0
2018-01-25T19:39:29.640Z,0
2018-01-25T19:40:51.855Z,0
2018-01-25T19:42:14.090Z,0